createdAt,value
2018-05-15T00:00:42.568Z,93307.55
2018-05-15T00:03:08.965Z,93314.34
2018-05-15T00:05:35.393Z,93308.66
2018-05-15T00:08:02.529Z,93308.53
2018-05-15T00:10:29.006Z,93308.73
2018-05-15T00:12:55.454Z,93316.63
2018-05-15T00:15:21.925Z,93317.73
2018-05-15T00:17:48.418Z,93316.91
2018-05-15T00:20:14.838Z,93314.66
2018-05-15T00:22:41.271Z,93307.55
2018-05-15T00:25:07.684Z,93297.97
2018-05-15T00:27:34.192Z,93304.97
2018-05-15T00:30:00.610Z,93305.59
2018-05-15T00:32:27.054Z,93296.83
2018-05-15T00:34:53.469Z,93302.75
2018-05-15T00:37:19.911Z,93308.93
2018-05-15T00:39:46.322Z,93311.67
2018-05-15T00:42:12.687Z,93313.92
2018-05-15T00:44:39.131Z,93310.50
2018-05-15T00:47:05.578Z,93314.05
2018-05-15T00:49:32.002Z,93314.58
2018-05-15T00:51:58.375Z,93319.50
2018-05-15T00:54:24.809Z,93321.41
2018-05-15T00:56:51.291Z,93322.93
2018-05-15T00:59:17.668Z,93311.96
2018-05-15T01:01:44.237Z,93308.89
2018-05-15T01:04:10.603Z,93300.95
2018-05-15T01:06:37.065Z,93304.91
2018-05-15T01:09:03.560Z,93299.31
2018-05-15T01:11:29.970Z,93296.13
2018-05-15T01:13:56.453Z,93302.75
2018-05-15T01:16:22.949Z,93294.57
2018-05-15T01:18:49.313Z,93294.05
2018-05-15T01:21:15.773Z,93295.88
2018-05-15T01:23:42.126Z,93284.96
2018-05-15T01:26:08.673Z,93286.06
2018-05-15T01:28:35.137Z,93287.98
2018-05-15T01:31:01.600Z,93281.93
2018-05-15T01:33:28.066Z,93289.17
2018-05-15T01:35:54.690Z,93284.47
2018-05-15T01:38:21.088Z,93281.56
2018-05-15T01:40:47.483Z,93286.84
2018-05-15T01:43:13.854Z,93284.72
2018-05-15T01:45:40.253Z,93276.78
2018-05-15T01:48:06.687Z,93268.06
2018-05-15T01:50:33.020Z,93273.66
2018-05-15T01:52:59.380Z,93275.06
2018-05-15T01:55:25.709Z,93265.77
2018-05-15T01:57:52.141Z,93259.84
2018-05-15T02:00:18.606Z,93268.84
2018-05-15T02:02:45.018Z,93266.97
2018-05-15T02:05:11.397Z,93264.02
2018-05-15T02:07:37.909Z,93265.94
2018-05-15T02:10:04.288Z,93260.34
2018-05-15T02:12:30.650Z,93252.97
2018-05-15T02:14:57.109Z,93258.57
2018-05-15T02:17:23.507Z,93251.02
2018-05-15T02:19:49.881Z,93250.03
2018-05-15T02:22:16.298Z,93241.59
2018-05-15T02:24:42.623Z,93254.32
2018-05-15T02:27:09.072Z,93250.31
2018-05-15T02:29:35.464Z,93250.67
2018-05-15T02:32:01.840Z,93255.13
2018-05-15T02:34:28.205Z,93260.89
2018-05-15T02:36:54.630Z,93254.06
2018-05-15T02:39:21.044Z,93256.31
2018-05-15T02:41:47.498Z,93254.88
2018-05-15T02:44:13.923Z,93250.58
2018-05-15T02:46:40.369Z,93246.81
2018-05-15T02:49:06.701Z,93252.17
2018-05-15T02:51:33.138Z,93264.10
2018-05-15T02:53:59.600Z,93261.44
2018-05-15T02:56:26.059Z,93264.20
2018-05-15T02:58:52.564Z,93261.91
2018-05-15T03:01:18.999Z,93264.31
2018-05-15T03:03:45.371Z,93270.95
2018-05-15T03:06:11.895Z,93266.45
2018-05-15T03:08:38.353Z,93278.55
2018-05-15T03:11:04.862Z,93282.59
2018-05-15T03:13:31.423Z,93285.68
2018-05-15T03:15:57.833Z,93297.05
2018-05-15T03:18:24.333Z,93293.78
2018-05-15T03:20:50.865Z,93293.63
2018-05-15T03:23:17.299Z,93297.84
2018-05-15T03:25:43.666Z,93288.84
2018-05-15T03:28:10.220Z,93294.78
2018-05-15T03:30:36.579Z,93288.67
2018-05-15T03:33:02.957Z,93287.37
2018-05-15T03:35:29.438Z,93287.89
2018-05-15T03:37:55.946Z,93285.20
2018-05-15T03:40:22.317Z,93290.95
2018-05-15T03:42:48.742Z,93293.02
2018-05-15T03:45:15.152Z,93292.44
2018-05-15T03:47:41.692Z,93293.22
2018-05-15T03:50:08.142Z,93293.60
2018-05-15T03:52:34.545Z,93301.09
2018-05-15T03:55:01.036Z,93303.06
2018-05-15T03:57:27.503Z,93304.37
2018-05-15T03:59:53.877Z,93301.41
2018-05-15T04:02:32.425Z,93312.15
2018-05-15T04:05:10.802Z,93311.80
2018-05-15T04:07:49.442Z,93318.76
2018-05-15T04:10:15.910Z,93321.38
2018-05-15T04:12:42.268Z,93323.66
2018-05-15T04:15:08.689Z,93324.17
2018-05-15T04:17:35.117Z,93325.84
2018-05-15T04:20:01.545Z,93324.56
2018-05-15T04:22:27.932Z,93326.18
2018-05-15T04:24:54.380Z,93331.75
2018-05-15T04:27:20.872Z,93335.71
2018-05-15T04:29:47.241Z,93336.83
2018-05-15T04:32:13.629Z,93335.89
2018-05-15T04:34:39.941Z,93338.27
2018-05-15T04:37:06.436Z,93343.17
2018-05-15T04:39:32.827Z,93334.30
2018-05-15T04:41:59.305Z,93341.39
2018-05-15T04:44:25.936Z,93349.58
2018-05-15T04:46:52.442Z,93352.98
2018-05-15T04:49:18.907Z,93342.91
2018-05-15T04:51:45.242Z,93343.55
2018-05-15T04:54:11.622Z,93342.18
2018-05-15T04:56:38.094Z,93338.25
2018-05-15T04:59:04.552Z,93339.95
2018-05-15T05:01:30.937Z,93344.31
2018-05-15T05:03:57.450Z,93350.44
2018-05-15T05:06:23.905Z,93349.54
2018-05-15T05:08:50.236Z,93345.19
2018-05-15T05:11:16.897Z,93349.80
2018-05-15T05:13:43.617Z,93349.86
2018-05-15T05:16:10.048Z,93351.70
2018-05-15T05:18:36.450Z,93346.50
2018-05-15T05:21:02.898Z,93349.50
2018-05-15T05:23:29.258Z,93350.17
2018-05-15T05:25:55.679Z,93341.88
2018-05-15T05:28:22.263Z,93341.88
2018-05-15T05:30:48.601Z,93346.56
2018-05-15T05:33:15.047Z,93342.02
2018-05-15T05:35:41.498Z,93343.50
2018-05-15T05:38:07.930Z,93341.39
2018-05-15T05:40:34.544Z,93345.86
2018-05-15T05:43:01.203Z,93342.38
2018-05-15T05:45:27.991Z,93346.00
2018-05-15T05:47:54.483Z,93342.03
2018-05-15T05:50:20.927Z,93349.70
2018-05-15T05:52:47.363Z,93346.09
2018-05-15T05:55:13.823Z,93358.56
2018-05-15T05:57:40.299Z,93353.41
2018-05-15T06:00:06.716Z,93359.20
2018-05-15T06:02:33.175Z,93361.58
2018-05-15T06:04:59.708Z,93356.77
2018-05-15T06:07:26.766Z,93353.84
2018-05-15T06:09:53.189Z,93351.03
2018-05-15T06:12:19.645Z,93353.50
2018-05-15T06:14:46.439Z,93351.97
2018-05-15T06:17:12.938Z,93358.80
2018-05-15T06:19:39.311Z,93352.33
2018-05-15T06:22:05.697Z,93349.86
2018-05-15T06:24:32.135Z,93350.79
2018-05-15T06:26:58.510Z,93350.59
2018-05-15T06:29:25.744Z,93349.71
2018-05-15T06:31:52.106Z,93338.87
2018-05-15T06:34:18.496Z,93338.55
2018-05-15T06:36:44.884Z,93338.78
2018-05-15T06:39:11.213Z,93330.16
2018-05-15T06:41:37.602Z,93331.27
2018-05-15T06:44:03.967Z,93337.55
2018-05-15T06:46:30.345Z,93332.63
2018-05-15T06:48:56.717Z,93337.72
2018-05-15T06:51:23.141Z,93336.37
2018-05-15T06:53:49.560Z,93322.94
2018-05-15T06:56:15.954Z,93329.31
2018-05-15T06:58:42.401Z,93335.66
2018-05-15T07:01:08.728Z,93335.08
2018-05-15T07:03:35.082Z,93334.45
2018-05-15T07:06:01.587Z,93325.34
2018-05-15T07:08:28.077Z,93331.66
2018-05-15T07:10:54.557Z,93324.23
2018-05-15T07:13:21.028Z,93332.53
2018-05-15T07:15:47.588Z,93324.55
2018-05-15T07:18:14.113Z,93328.22
2018-05-15T07:20:40.520Z,93323.64
2018-05-15T07:23:07.003Z,93318.03
2018-05-15T07:25:33.495Z,93301.91
2018-05-15T07:28:00.077Z,93308.41
2018-05-15T07:30:26.529Z,93323.13
2018-05-15T07:32:52.919Z,93313.47
2018-05-15T07:35:19.382Z,93309.56
2018-05-15T07:37:45.850Z,93319.41
2018-05-15T07:40:12.343Z,93314.23
2018-05-15T07:42:38.815Z,93302.77
2018-05-15T07:45:05.188Z,93319.70
2018-05-15T07:47:31.747Z,93313.08
2018-05-15T07:49:58.179Z,93310.73
2018-05-15T07:52:24.604Z,93301.67
2018-05-15T07:54:51.061Z,93298.11
2018-05-15T07:57:17.533Z,93290.61
2018-05-15T07:59:44.143Z,93298.17
2018-05-15T08:02:10.805Z,93294.27
2018-05-15T08:04:37.777Z,93294.93
2018-05-15T08:07:05.331Z,93290.97
2018-05-15T08:09:31.730Z,93283.56
2018-05-15T08:11:59.157Z,93274.91
2018-05-15T08:14:25.839Z,93283.28
2018-05-15T08:16:52.539Z,93282.66
2018-05-15T08:19:19.165Z,93276.44
2018-05-15T08:21:45.545Z,93293.43
2018-05-15T08:24:11.963Z,93300.94
2018-05-15T08:26:38.449Z,93289.56
2018-05-15T08:29:04.963Z,93306.20
2018-05-15T08:31:31.399Z,93306.33
2018-05-15T08:33:57.818Z,93306.45
2018-05-15T08:36:24.212Z,93304.35
2018-05-15T08:38:50.723Z,93318.51
2018-05-15T08:41:17.076Z,93313.05
2018-05-15T08:43:43.436Z,93314.56
2018-05-15T08:46:09.894Z,93321.21
2018-05-15T08:48:37.274Z,93334.02
2018-05-15T08:51:03.704Z,93317.51
2018-05-15T08:53:30.155Z,93328.97
2018-05-15T08:55:56.543Z,93330.89
2018-05-15T08:58:22.976Z,93332.44
2018-05-15T09:00:49.458Z,93342.89
2018-05-15T09:03:15.836Z,93347.11
2018-05-15T09:05:42.300Z,93345.39
2018-05-15T09:08:08.774Z,93356.30
2018-05-15T09:10:35.173Z,93355.77
2018-05-15T09:13:01.567Z,93346.30
2018-05-15T09:15:28.123Z,93357.18
2018-05-15T09:17:54.654Z,93350.61
2018-05-15T09:20:21.058Z,93355.28
2018-05-15T09:22:47.438Z,93348.35
2018-05-15T09:25:13.986Z,93349.55
2018-05-15T09:27:40.466Z,93352.92
2018-05-15T09:30:06.867Z,93356.48
2018-05-15T09:32:33.226Z,93348.09
2018-05-15T09:34:59.658Z,93364.27
2018-05-15T09:37:26.159Z,93359.14
2018-05-15T09:39:52.624Z,93366.36
2018-05-15T09:42:19.092Z,93364.05
2018-05-15T09:44:45.496Z,93353.25
2018-05-15T09:47:12.065Z,93358.29
2018-05-15T09:49:38.538Z,93352.46
2018-05-15T09:52:04.902Z,93350.54
2018-05-15T09:54:31.299Z,93350.53
2018-05-15T09:56:57.786Z,93348.33
2018-05-15T09:59:25.002Z,93348.91
2018-05-15T10:01:51.478Z,93342.33
2018-05-15T10:04:17.917Z,93355.69
2018-05-15T10:06:44.329Z,93357.70
2018-05-15T10:09:10.814Z,93363.47
2018-05-15T10:11:37.236Z,93348.12
2018-05-15T10:14:03.706Z,93348.05
2018-05-15T10:16:30.124Z,93345.56
2018-05-15T10:18:56.684Z,93339.59
2018-05-15T10:21:23.315Z,93341.23
2018-05-15T10:23:49.775Z,93344.98
2018-05-15T10:26:16.230Z,93348.38
2018-05-15T10:28:42.629Z,93325.67
2018-05-15T10:31:09.035Z,93326.60
2018-05-15T10:33:35.531Z,93313.80
2018-05-15T10:36:02.874Z,93320.19
2018-05-15T10:38:29.259Z,93326.80
2018-05-15T10:40:55.730Z,93335.72
2018-05-15T10:43:22.224Z,93320.27
2018-05-15T10:45:48.609Z,93323.11
2018-05-15T10:48:15.119Z,93332.91
2018-05-15T10:50:41.538Z,93335.64
2018-05-15T10:53:07.918Z,93328.48
2018-05-15T10:55:34.332Z,93328.87
2018-05-15T10:58:00.742Z,93318.20
2018-05-15T11:00:27.106Z,93322.72
2018-05-15T11:02:53.557Z,93318.73
2018-05-15T11:05:19.959Z,93319.42
2018-05-15T11:07:46.418Z,93320.30
2018-05-15T11:10:12.939Z,93322.50
2018-05-15T11:12:39.353Z,93327.70
2018-05-15T11:15:05.718Z,93331.98
2018-05-15T11:17:32.155Z,93328.45
2018-05-15T11:20:10.834Z,93336.39
2018-05-15T11:22:49.538Z,93331.08
2018-05-15T11:25:16.027Z,93328.22
2018-05-15T11:27:42.459Z,93335.95
2018-05-15T11:30:08.938Z,93338.75
2018-05-15T11:32:35.483Z,93344.00
2018-05-15T11:35:01.828Z,93342.64
2018-05-15T11:37:28.298Z,93341.59
2018-05-15T11:39:54.716Z,93335.22
2018-05-15T11:42:21.089Z,93325.27
2018-05-15T11:44:47.551Z,93326.37
2018-05-15T11:47:14.095Z,93325.42
2018-05-15T11:49:41.780Z,93312.16
2018-05-15T11:52:07.702Z,93312.85
2018-05-15T11:54:33.630Z,93308.11
2018-05-15T11:56:59.985Z,93301.86
2018-05-15T11:59:26.474Z,93317.92
2018-05-15T12:01:53.785Z,93311.16
2018-05-15T12:04:20.163Z,93310.95
2018-05-15T12:06:46.593Z,93312.32
2018-05-15T12:09:13.178Z,93306.48
2018-05-15T12:11:39.549Z,93299.58
2018-05-15T12:14:05.975Z,93299.72
2018-05-15T12:16:32.385Z,93302.70
2018-05-15T12:18:58.785Z,93296.95
2018-05-15T12:21:25.166Z,93297.03
2018-05-15T12:23:51.615Z,93293.22
2018-05-15T12:26:18.006Z,93285.83
2018-05-15T12:28:44.476Z,93282.70
2018-05-15T12:31:10.875Z,93269.33
2018-05-15T12:33:37.340Z,93267.12
2018-05-15T12:36:03.835Z,93272.77
2018-05-15T12:38:30.219Z,93269.08
2018-05-15T12:40:56.675Z,93266.90
2018-05-15T12:43:23.140Z,93262.19
2018-05-15T12:45:49.507Z,93264.97
2018-05-15T12:48:15.914Z,93260.72
2018-05-15T12:50:42.508Z,93261.02
2018-05-15T12:53:08.925Z,93258.82
2018-05-15T12:55:35.414Z,93244.61
2018-05-15T12:58:01.922Z,93249.05
2018-05-15T13:00:28.354Z,93237.45
2018-05-15T13:02:54.798Z,93243.09
2018-05-15T13:05:21.280Z,93250.86
2018-05-15T13:07:47.821Z,93246.35
2018-05-15T13:10:14.988Z,93249.97
2018-05-15T13:12:41.631Z,93256.73
2018-05-15T13:15:08.164Z,93261.52
2018-05-15T13:17:34.853Z,93265.13
2018-05-15T13:20:01.391Z,93260.31
2018-05-15T13:22:28.727Z,93263.98
2018-05-15T13:24:55.225Z,93264.39
2018-05-15T13:27:21.813Z,93269.95
2018-05-15T13:29:48.310Z,93291.36
2018-05-15T13:32:14.824Z,93291.84
2018-05-15T13:34:41.503Z,93301.23
2018-05-15T13:37:08.151Z,93298.39
2018-05-15T13:39:34.753Z,93306.06
2018-05-15T13:42:01.312Z,93301.74
2018-05-15T13:44:27.861Z,93305.83
2018-05-15T13:46:54.505Z,93321.75
2018-05-15T13:49:20.997Z,93325.18
2018-05-15T13:51:47.526Z,93333.31
2018-05-15T13:54:14.064Z,93333.17
2018-05-15T13:56:40.609Z,93327.36
2018-05-15T13:59:07.308Z,93324.21
2018-05-15T14:01:33.712Z,93324.16
2018-05-15T14:04:00.133Z,93329.17
2018-05-15T14:06:26.546Z,93331.95
2018-05-15T14:08:53.111Z,93330.27
2018-05-15T14:11:19.668Z,93335.09
2018-05-15T14:13:46.117Z,93331.13
2018-05-15T14:16:12.572Z,93332.36
2018-05-15T14:18:39.220Z,93333.31
2018-05-15T14:21:05.686Z,93328.71
2018-05-15T14:23:32.294Z,93336.30
2018-05-15T14:25:58.877Z,93358.95
2018-05-15T14:28:25.347Z,93377.95
2018-05-15T14:30:51.908Z,93362.26
2018-05-15T14:33:18.533Z,93369.40
2018-05-15T14:35:45.061Z,93373.52
2018-05-15T14:38:11.583Z,93379.78
2018-05-15T14:40:38.156Z,93376.06
2018-05-15T14:43:21.585Z,93373.31
2018-05-15T14:45:48.143Z,93364.88
2018-05-15T14:48:14.613Z,93367.22
2018-05-15T14:50:48.291Z,93358.00
2018-05-15T14:53:14.635Z,93359.14
2018-05-15T14:55:41.167Z,93349.45
2018-05-15T14:58:08.428Z,93345.14
2018-05-15T15:00:34.953Z,93341.80
2018-05-15T15:03:01.446Z,93347.89
2018-05-15T15:05:28.089Z,93345.55
2018-05-15T15:07:54.618Z,93346.70
2018-05-15T15:10:21.071Z,93331.18
2018-05-15T15:12:47.668Z,93333.25
2018-05-15T15:15:14.257Z,93321.38
2018-05-15T15:17:41.080Z,93313.12
2018-05-15T15:20:07.684Z,93321.19
2018-05-15T15:22:34.246Z,93316.56
2018-05-15T15:25:00.645Z,93313.28
2018-05-15T15:27:27.275Z,93306.50
2018-05-15T15:29:53.705Z,93302.26
2018-05-15T15:32:20.310Z,93287.13
2018-05-15T15:34:46.797Z,93292.72
2018-05-15T15:37:13.201Z,93287.29
2018-05-15T15:39:39.721Z,93279.30
2018-05-15T15:42:06.720Z,93270.02
2018-05-15T15:44:33.133Z,93274.23
2018-05-15T15:46:59.608Z,93259.58
2018-05-15T15:49:26.153Z,93258.91
2018-05-15T15:51:52.565Z,93245.56
2018-05-15T15:54:19.026Z,93234.73
2018-05-15T15:56:45.641Z,93233.11
2018-05-15T15:59:12.101Z,93227.05
2018-05-15T16:01:38.548Z,93218.94
2018-05-15T16:04:05.039Z,93209.59
2018-05-15T16:06:31.426Z,93197.96
2018-05-15T16:08:58.183Z,93196.70
2018-05-15T16:11:24.906Z,93196.98
2018-05-15T16:13:51.573Z,93184.66
2018-05-15T16:16:18.174Z,93166.61
2018-05-15T16:18:45.277Z,93168.95
2018-05-15T16:21:11.949Z,93161.50
2018-05-15T16:23:38.858Z,93156.04
2018-05-15T16:26:05.403Z,93169.44
2018-05-15T16:28:32.191Z,93172.58
2018-05-15T16:30:58.846Z,93184.64
2018-05-15T16:33:25.371Z,93173.68
2018-05-15T16:35:52.082Z,93179.75
2018-05-15T16:38:18.631Z,93179.81
2018-05-15T16:40:45.214Z,93170.14
2018-05-15T16:43:11.887Z,93170.27
2018-05-15T16:45:38.380Z,93163.23
2018-05-15T16:48:05.256Z,93180.55
2018-05-15T16:50:32.431Z,93192.82
2018-05-15T16:52:59.505Z,93209.84
2018-05-15T16:55:26.121Z,93210.39
2018-05-15T16:57:52.697Z,93200.02
2018-05-15T17:00:19.406Z,93211.13
2018-05-15T17:02:46.027Z,93220.02
2018-05-15T17:05:12.485Z,93207.51
2018-05-15T17:07:38.924Z,93200.96
2018-05-15T17:10:05.367Z,93211.61
2018-05-15T17:12:31.881Z,93206.38
2018-05-15T17:14:58.739Z,93210.23
2018-05-15T17:17:25.336Z,93215.55
2018-05-15T17:19:53.554Z,93221.06
2018-05-15T17:22:20.251Z,93208.06
2018-05-15T17:24:47.268Z,93195.06
2018-05-15T17:27:14.360Z,93194.95
2018-05-15T17:29:41.182Z,93194.78
2018-05-15T17:32:08.299Z,93190.66
2018-05-15T17:34:34.872Z,93180.06
2018-05-15T17:37:01.589Z,93175.60
2018-05-15T17:39:28.247Z,93197.44
2018-05-15T17:41:54.849Z,93193.35
2018-05-15T17:44:21.511Z,93196.98
2018-05-15T17:46:48.071Z,93196.91
2018-05-15T17:49:14.706Z,93204.92
2018-05-15T17:51:41.543Z,93201.73
2018-05-15T17:54:08.217Z,93180.80
2018-05-15T17:56:34.900Z,93176.70
2018-05-15T17:59:01.493Z,93186.39
2018-05-15T18:01:28.316Z,93178.83
2018-05-15T18:03:54.956Z,93170.53
2018-05-15T18:06:21.790Z,93172.98
2018-05-15T18:08:48.329Z,93168.00
2018-05-15T18:11:15.130Z,93174.00
2018-05-15T18:13:41.540Z,93187.75
2018-05-15T18:16:08.351Z,93181.13
2018-05-15T18:18:34.986Z,93198.02
2018-05-15T18:21:01.613Z,93202.41
2018-05-15T18:23:28.735Z,93186.76
2018-05-15T18:25:55.419Z,93188.31
2018-05-15T18:28:22.254Z,93201.61
2018-05-15T18:30:48.911Z,93203.36
2018-05-15T18:33:15.644Z,93198.12
2018-05-15T18:35:42.305Z,93215.39
2018-05-15T18:38:09.087Z,93238.45
2018-05-15T18:40:35.815Z,93236.20
2018-05-15T18:43:02.574Z,93238.70
2018-05-15T18:45:29.268Z,93223.48
2018-05-15T18:47:56.595Z,93226.22
2018-05-15T18:50:23.293Z,93237.27
2018-05-15T18:52:50.262Z,93232.19
2018-05-15T18:55:16.899Z,93233.05
2018-05-15T18:57:43.370Z,93247.86
2018-05-15T19:00:09.816Z,93238.13
2018-05-15T19:02:36.471Z,93231.17
2018-05-15T19:05:03.000Z,93216.53
2018-05-15T19:07:29.672Z,93208.27
2018-05-15T19:09:56.718Z,93215.67
2018-05-15T19:12:23.343Z,93197.44
2018-05-15T19:14:50.673Z,93197.69
2018-05-15T19:17:17.570Z,93188.80
2018-05-15T19:19:44.230Z,93189.38
2018-05-15T19:22:11.886Z,93182.67
2018-05-15T19:24:38.793Z,93178.45
2018-05-15T19:27:05.529Z,93179.84
2018-05-15T19:29:32.125Z,93179.33
2018-05-15T19:34:55.779Z,93195.31
2018-05-15T19:37:22.238Z,93188.47
2018-05-15T19:39:49.646Z,93181.61
2018-05-15T19:42:16.274Z,93199.97
2018-05-15T19:44:43.353Z,93210.16
2018-05-15T19:47:10.045Z,93208.36
2018-05-15T19:49:36.668Z,93198.50
2018-05-15T19:52:04.383Z,93190.73
2018-05-15T19:54:31.701Z,93188.11
2018-05-15T19:56:58.616Z,93175.16
2018-05-15T19:59:25.268Z,93167.80
2018-05-15T20:01:51.912Z,93176.02
2018-05-15T20:04:18.575Z,93195.34
2018-05-15T20:06:45.101Z,93195.56
2018-05-15T20:09:11.657Z,93202.17
2018-05-15T20:11:38.992Z,93202.06
2018-05-15T20:14:06.116Z,93212.06
2018-05-15T20:16:32.823Z,93210.84
2018-05-15T20:18:59.471Z,93204.42
2018-05-15T20:21:25.985Z,93180.09
2018-05-15T20:23:52.562Z,93217.63
2018-05-15T20:26:19.172Z,93189.61
2018-05-15T20:28:45.907Z,93205.00
2018-05-15T20:31:12.350Z,93199.97
2018-05-15T20:33:38.907Z,93194.12
2018-05-15T20:36:05.409Z,93189.54
2018-05-15T20:38:32.052Z,93179.75
2018-05-15T20:40:58.559Z,93189.16
2018-05-15T20:43:25.438Z,93184.98
2018-05-15T20:45:52.132Z,93177.63
2018-05-15T20:48:18.603Z,93172.92
2018-05-15T20:50:45.267Z,93178.25
2018-05-15T20:53:11.742Z,93180.02
2018-05-15T20:55:38.390Z,93179.41
2018-05-15T20:58:06.277Z,93171.10
2018-05-15T21:00:32.802Z,93178.05
2018-05-15T21:02:59.281Z,93180.76
2018-05-15T21:05:25.847Z,93170.50
2018-05-15T21:07:53.034Z,93168.58
2018-05-15T21:10:19.541Z,93173.70
2018-05-15T21:12:45.987Z,93158.80
2018-05-15T21:15:12.428Z,93180.88
2018-05-15T21:17:38.690Z,93183.95
2018-05-15T21:20:05.353Z,93173.16
2018-05-15T21:22:32.195Z,93181.74
2018-05-15T21:24:58.569Z,93177.65
2018-05-15T21:27:24.966Z,93171.88
2018-05-15T21:29:51.422Z,93171.95
2018-05-15T21:32:17.794Z,93170.04
2018-05-15T21:34:44.190Z,93170.41
2018-05-15T21:37:10.609Z,93152.42
2018-05-15T21:39:36.991Z,93148.39
2018-05-15T21:42:03.422Z,93140.66
2018-05-15T21:44:29.770Z,93151.23
2018-05-15T21:46:56.223Z,93153.94
2018-05-15T21:49:22.714Z,93119.67
2018-05-15T21:51:49.251Z,93110.77
2018-05-15T21:54:15.648Z,93143.56
2018-05-15T21:56:42.292Z,93147.78
2018-05-15T21:59:08.876Z,93148.39
2018-05-15T22:01:35.395Z,93130.17
2018-05-15T22:04:01.976Z,93139.99
2018-05-15T22:06:28.489Z,93123.30
2018-05-15T22:08:55.093Z,93131.55
2018-05-15T22:11:21.281Z,93129.47
2018-05-15T22:13:59.939Z,93124.80
2018-05-15T22:16:38.632Z,93130.81
2018-05-15T22:19:17.096Z,93139.85
2018-05-15T22:21:55.803Z,93144.53
2018-05-15T22:24:25.408Z,93135.76
2018-05-15T22:26:51.796Z,93145.38
2018-05-15T22:29:18.318Z,93141.03
2018-05-15T22:31:44.744Z,93135.92
2018-05-15T22:34:11.145Z,93142.28
2018-05-15T22:36:37.635Z,93148.97
2018-05-15T22:39:05.081Z,93139.61
2018-05-15T22:41:31.418Z,93144.39
2018-05-15T22:43:58.116Z,93142.91
2018-05-15T22:46:24.475Z,93129.92
2018-05-15T22:48:51.278Z,93117.49
2018-05-15T22:51:17.726Z,93119.34
2018-05-15T22:53:44.160Z,93107.89
2018-05-15T22:56:10.502Z,93109.16
2018-05-15T22:58:37.005Z,93111.86
2018-05-15T23:01:03.380Z,93118.64
2018-05-15T23:03:29.753Z,93116.77
2018-05-15T23:05:56.146Z,93100.54
2018-05-15T23:08:22.592Z,93091.84
2018-05-15T23:10:48.936Z,93086.08
2018-05-15T23:13:15.371Z,93083.66
2018-05-15T23:15:41.717Z,93079.09
2018-05-15T23:18:08.118Z,93066.55
2018-05-15T23:20:34.536Z,93074.64
2018-05-15T23:23:00.954Z,93064.46
2018-05-15T23:25:27.333Z,93073.53
2018-05-15T23:27:53.766Z,93065.74
2018-05-15T23:30:20.154Z,93076.28
2018-05-15T23:32:46.604Z,93068.95
2018-05-15T23:35:13.044Z,93048.45
2018-05-15T23:37:39.445Z,93058.66
2018-05-15T23:40:05.941Z,93052.61
2018-05-15T23:42:32.394Z,93073.80
2018-05-15T23:44:58.752Z,93080.78
2018-05-15T23:47:25.123Z,93070.77
2018-05-15T23:49:51.560Z,93056.05
2018-05-15T23:52:17.949Z,93041.94
2018-05-15T23:54:44.425Z,93067.70
2018-05-15T23:57:10.830Z,93057.83
2018-05-15T23:59:37.311Z,93065.55
